createdAt,value
2022-11-25T00:00:34.556Z,6.02
2022-11-25T00:04:37.226Z,5.91
2022-11-25T00:08:39.733Z,5.96
2022-11-25T00:12:41.280Z,5.82
2022-11-25T00:16:47.941Z,5.90
2022-11-25T00:20:50.287Z,5.78
2022-11-25T00:24:51.794Z,5.74
2022-11-25T00:28:54.496Z,5.73
2022-11-25T00:32:56.007Z,5.72
2022-11-25T00:36:57.538Z,5.93
2022-11-25T00:41:17.532Z,5.91
2022-11-25T00:45:19.051Z,5.92
2022-11-25T00:49:20.670Z,6.10
2022-11-25T00:53:22.168Z,6.29
2022-11-25T00:57:23.879Z,6.25
2022-11-25T01:01:25.943Z,5.99
2022-11-25T01:05:27.601Z,6.26
2022-11-25T01:09:29.488Z,6.21
2022-11-25T01:13:31.604Z,6.63
2022-11-25T01:17:33.055Z,6.66
2022-11-25T01:21:35.109Z,6.78
2022-11-25T01:25:37.798Z,6.95
2022-11-25T01:29:41.655Z,6.90
2022-11-25T01:33:44.212Z,6.64
2022-11-25T01:37:45.763Z,6.76
2022-11-25T01:41:48.728Z,6.61
2022-11-25T01:45:50.632Z,6.59
2022-11-25T01:50:10.883Z,6.43
2022-11-25T01:54:16.033Z,6.03
2022-11-25T01:58:22.762Z,5.97
2022-11-25T02:02:24.538Z,5.99
2022-11-25T02:06:32.394Z,5.85
2022-11-25T02:10:35.348Z,5.41
2022-11-25T02:14:38.082Z,5.62
2022-11-25T02:18:40.281Z,5.64
2022-11-25T02:22:49.769Z,5.86
2022-11-25T02:26:51.508Z,5.20
2022-11-25T02:30:53.813Z,5.78
2022-11-25T02:34:55.467Z,5.78
2022-11-25T02:39:00.708Z,5.80
2022-11-25T02:43:05.818Z,5.37
2022-11-25T02:47:07.345Z,5.61
2022-11-25T02:51:11.541Z,5.37
2022-11-25T02:55:13.086Z,5.43
2022-11-25T02:59:14.645Z,5.54
2022-11-25T03:03:16.997Z,5.23
2022-11-25T03:07:21.874Z,5.68
2022-11-25T03:11:44.330Z,5.42
2022-11-25T03:15:45.880Z,5.64
2022-11-25T03:19:47.494Z,5.91
2022-11-25T03:23:49.100Z,5.65
2022-11-25T03:27:52.187Z,5.46
2022-11-25T03:31:55.096Z,5.77
2022-11-25T03:35:56.654Z,5.76
2022-11-25T03:39:58.276Z,5.33
2022-11-25T03:43:59.964Z,5.19
2022-11-25T03:48:01.457Z,5.48
2022-11-25T03:52:03.450Z,5.24
2022-11-25T03:56:05.984Z,5.24
2022-11-25T04:00:09.361Z,5.36
2022-11-25T04:04:19.871Z,5.39
2022-11-25T04:08:21.900Z,5.40
2022-11-25T04:12:41.963Z,5.29
2022-11-25T04:16:43.759Z,5.42
2022-11-25T04:20:45.931Z,5.46
2022-11-25T04:24:47.744Z,5.89
2022-11-25T04:28:54.517Z,5.90
2022-11-25T04:32:56.492Z,5.60
2022-11-25T04:36:58.158Z,5.98
2022-11-25T04:41:00.534Z,5.71
2022-11-25T04:45:22.577Z,5.97
2022-11-25T04:49:26.485Z,5.65
2022-11-25T04:53:28.106Z,6.02
2022-11-25T04:57:30.115Z,5.53
2022-11-25T05:01:32.212Z,6.21
2022-11-25T05:06:08.084Z,5.96
2022-11-25T05:10:11.482Z,6.16
2022-11-25T05:14:17.983Z,6.22
2022-11-25T05:18:19.851Z,6.42
2022-11-25T05:22:26.664Z,6.07
2022-11-25T05:26:28.306Z,6.48
2022-11-25T05:30:32.919Z,6.37
2022-11-25T05:34:35.218Z,6.36
2022-11-25T05:38:37.616Z,6.56
2022-11-25T05:42:39.312Z,6.20
2022-11-25T05:46:46.556Z,6.02
2022-11-25T05:50:48.162Z,6.05
2022-11-25T05:54:57.463Z,6.31
2022-11-25T05:59:00.161Z,6.30
2022-11-25T06:03:14.235Z,5.93
2022-11-25T06:07:16.537Z,5.81
2022-11-25T06:11:18.985Z,6.03
2022-11-25T06:15:20.481Z,6.42
2022-11-25T06:19:23.136Z,5.68
2022-11-25T06:23:26.032Z,6.10
2022-11-25T06:27:31.951Z,6.07
2022-11-25T06:31:45.694Z,6.25
2022-11-25T06:36:17.319Z,6.17
2022-11-25T06:40:19.175Z,5.92
2022-11-25T06:44:20.704Z,5.84
2022-11-25T06:48:22.209Z,5.82
2022-11-25T06:52:24.012Z,5.82
2022-11-25T06:56:27.804Z,5.82
2022-11-25T07:00:29.371Z,5.71
2022-11-25T07:04:31.291Z,5.77
2022-11-25T07:08:34.579Z,6.21
2022-11-25T07:12:38.795Z,6.07
2022-11-25T07:17:07.436Z,5.94
2022-11-25T07:21:17.790Z,6.09
2022-11-25T07:25:34.769Z,6.30
2022-11-25T07:39:37.581Z,6.58
2022-11-25T07:43:41.022Z,6.69
2022-11-25T07:47:42.557Z,6.08
2022-11-25T07:51:49.143Z,6.38
2022-11-25T07:55:50.640Z,6.32
2022-11-25T07:59:52.050Z,6.90
2022-11-25T08:03:54.442Z,7.09
2022-11-25T08:07:55.989Z,6.97
2022-11-25T08:11:58.173Z,7.08
2022-11-25T08:16:00.672Z,6.67
2022-11-25T08:20:02.134Z,6.38
2022-11-25T08:24:04.254Z,6.60
2022-11-25T08:28:05.681Z,6.78
2022-11-25T08:32:11.765Z,6.57
2022-11-25T08:36:13.969Z,6.59
2022-11-25T08:40:15.827Z,6.79
2022-11-25T08:44:17.415Z,6.80
2022-11-25T08:48:20.265Z,6.99
2022-11-25T08:52:22.679Z,7.25
2022-11-25T08:56:26.631Z,7.18
2022-11-25T09:00:28.089Z,7.02
2022-11-25T09:04:29.490Z,6.72
2022-11-25T09:08:31.541Z,6.73
2022-11-25T09:12:32.980Z,7.52
2022-11-25T09:16:34.541Z,7.18
2022-11-25T09:20:39.448Z,7.44
2022-11-25T09:24:41.881Z,6.97
2022-11-25T09:28:43.722Z,7.44
2022-11-25T09:32:49.031Z,7.50
2022-11-25T09:36:50.689Z,7.89
2022-11-25T09:41:07.336Z,7.87
2022-11-25T09:45:52.747Z,8.13
2022-11-25T09:50:14.628Z,7.73
2022-11-25T09:54:27.478Z,7.86
2022-11-25T09:58:44.529Z,7.81
2022-11-25T10:03:04.679Z,7.77
2022-11-25T10:07:17.365Z,7.68
2022-11-25T10:11:28.122Z,7.79
2022-11-25T10:15:34.402Z,8.10
2022-11-25T10:19:50.804Z,7.85
2022-11-25T10:23:52.302Z,7.53
2022-11-25T10:28:18.593Z,8.02
2022-11-25T10:32:25.594Z,7.91
2022-11-25T10:36:32.313Z,7.82
2022-11-25T10:40:33.855Z,8.04
2022-11-25T10:44:38.197Z,8.25
2022-11-25T10:48:59.364Z,8.00
2022-11-25T10:53:16.012Z,7.84
2022-11-25T10:57:20.196Z,7.78
2022-11-25T11:01:25.293Z,7.97
2022-11-25T11:05:31.204Z,8.03
2022-11-25T11:09:38.790Z,8.02
2022-11-25T11:13:40.245Z,8.46
2022-11-25T11:17:41.778Z,8.61
2022-11-25T11:21:43.669Z,8.17
2022-11-25T11:26:03.878Z,8.33
2022-11-25T11:30:14.395Z,8.56
2022-11-25T11:34:52.467Z,8.34
2022-11-25T11:39:01.157Z,8.81
2022-11-25T11:43:21.085Z,8.31
2022-11-25T11:47:56.401Z,8.08
2022-11-25T11:52:04.244Z,8.55
2022-11-25T11:56:35.271Z,8.48
2022-11-25T12:00:57.099Z,8.65
2022-11-25T12:05:10.549Z,8.83
2022-11-25T12:09:23.141Z,9.11
2022-11-25T12:13:36.419Z,9.05
2022-11-25T12:17:48.584Z,8.49
2022-11-25T12:22:05.777Z,8.98
2022-11-25T12:26:13.664Z,9.14
2022-11-25T12:30:18.353Z,8.90
2022-11-25T12:34:41.006Z,8.41
2022-11-25T12:38:53.879Z,8.79
2022-11-25T12:43:19.968Z,8.65
2022-11-25T12:47:21.863Z,8.65
2022-11-25T12:51:35.525Z,8.53
2022-11-25T12:55:39.913Z,8.73
2022-11-25T13:00:17.624Z,8.30
2022-11-25T13:04:36.449Z,8.71
2022-11-25T13:08:59.819Z,8.77
2022-11-25T13:13:24.318Z,8.55
2022-11-25T13:17:27.206Z,8.69
2022-11-25T13:21:29.062Z,8.81
2022-11-25T13:25:32.006Z,8.90
2022-11-25T13:29:39.543Z,8.92
2022-11-25T13:33:43.812Z,8.89
2022-11-25T13:37:45.542Z,8.56
2022-11-25T13:41:57.283Z,8.97
2022-11-25T13:45:58.984Z,8.91
2022-11-25T13:50:08.363Z,8.68
2022-11-25T13:54:19.119Z,8.14
2022-11-25T13:58:24.150Z,8.63
2022-11-25T14:02:28.782Z,8.24
2022-11-25T14:06:39.583Z,8.49
2022-11-25T14:11:02.408Z,8.65
2022-11-25T14:15:12.263Z,8.51
2022-11-25T14:23:56.353Z,8.44
2022-11-25T14:28:10.409Z,8.56
2022-11-25T14:32:22.756Z,8.48
2022-11-25T14:36:47.192Z,8.59
2022-11-25T14:41:00.031Z,8.22
2022-11-25T14:45:03.068Z,8.65
2022-11-25T14:49:07.644Z,8.49
2022-11-25T14:53:14.157Z,8.33
2022-11-25T14:57:20.673Z,8.49
2022-11-25T15:01:24.143Z,8.23
2022-11-25T15:05:37.663Z,8.45
2022-11-25T15:09:42.804Z,8.73
2022-11-25T15:13:47.429Z,8.99
2022-11-25T15:17:49.085Z,8.88
2022-11-25T15:22:23.144Z,8.89
2022-11-25T15:26:30.812Z,8.32
2022-11-25T15:30:32.231Z,8.49
2022-11-25T15:34:33.822Z,8.81
2022-11-25T15:38:44.353Z,8.83
2022-11-25T15:42:45.847Z,8.80
2022-11-25T15:46:59.281Z,8.81
2022-11-25T15:51:07.167Z,8.49
2022-11-25T15:55:27.524Z,8.62
2022-11-25T15:59:39.899Z,8.85
2022-11-25T16:03:41.858Z,8.90
2022-11-25T16:07:49.793Z,8.78
2022-11-25T16:11:51.343Z,8.73
2022-11-25T16:15:57.393Z,8.58
2022-11-25T16:19:58.910Z,8.43
2022-11-25T16:24:06.550Z,8.52
2022-11-25T16:28:21.986Z,8.65
2022-11-25T16:32:26.461Z,8.66
2022-11-25T16:36:27.871Z,8.82
2022-11-25T16:40:29.628Z,8.69
2022-11-25T16:44:33.907Z,8.84
2022-11-25T16:48:36.277Z,8.81
2022-11-25T16:52:37.724Z,8.55
2022-11-25T16:56:42.606Z,8.88
2022-11-25T17:00:49.780Z,8.59
2022-11-25T17:04:51.413Z,8.46
2022-11-25T17:08:52.990Z,8.56
2022-11-25T17:12:55.675Z,8.72
2022-11-25T17:16:59.274Z,8.46
2022-11-25T17:21:00.730Z,8.72
2022-11-25T17:25:02.416Z,8.69
2022-11-25T17:29:12.095Z,8.47
2022-11-25T17:33:19.138Z,8.55
2022-11-25T17:37:23.098Z,8.60
2022-11-25T17:41:26.801Z,8.57
2022-11-25T17:45:29.414Z,8.63
2022-11-25T17:49:30.925Z,8.41
2022-11-25T17:53:33.319Z,8.23
2022-11-25T17:57:35.114Z,8.45
2022-11-25T18:01:36.724Z,8.58
2022-11-25T18:05:38.249Z,8.35
2022-11-25T18:09:39.912Z,8.35
2022-11-25T18:13:43.646Z,8.01
2022-11-25T18:17:45.480Z,8.09
2022-11-25T18:21:47.199Z,8.32
2022-11-25T18:25:48.841Z,8.17
2022-11-25T18:29:51.471Z,8.18
2022-11-25T18:33:52.938Z,8.17
2022-11-25T18:37:56.503Z,8.37
2022-11-25T18:42:05.783Z,8.39
2022-11-25T18:46:07.624Z,8.17
2022-11-25T18:50:24.935Z,8.43
2022-11-25T18:54:26.362Z,8.49
2022-11-25T18:58:28.036Z,8.42
2022-11-25T19:02:29.528Z,8.78
2022-11-25T19:06:31.648Z,8.79
2022-11-25T19:10:36.392Z,8.75
2022-11-25T19:14:41.625Z,8.85
2022-11-25T19:18:45.646Z,9.00
2022-11-25T19:22:47.637Z,8.88
2022-11-25T19:26:51.945Z,8.83
2022-11-25T19:31:00.090Z,8.72
2022-11-25T19:35:05.424Z,8.76
2022-11-25T19:39:16.430Z,8.68
2022-11-25T19:43:17.840Z,8.90
2022-11-25T19:47:24.995Z,8.92
2022-11-25T19:51:29.552Z,8.51
2022-11-25T19:55:32.262Z,8.97
2022-11-25T19:59:33.675Z,8.84
2022-11-25T20:03:35.218Z,8.86
2022-11-25T20:07:36.864Z,8.86
2022-11-25T20:11:38.378Z,8.87
2022-11-25T20:15:41.325Z,8.65
2022-11-25T20:19:42.870Z,8.63
2022-11-25T20:23:46.192Z,8.62
2022-11-25T20:27:47.774Z,8.67
2022-11-25T20:31:49.540Z,8.54
2022-11-25T20:35:54.699Z,8.82
2022-11-25T20:39:58.366Z,8.43
2022-11-25T20:44:00.146Z,8.77
2022-11-25T20:48:01.574Z,8.83
2022-11-25T20:52:03.313Z,8.68
2022-11-25T20:56:05.532Z,8.52
2022-11-25T21:00:27.657Z,9.02
2022-11-25T21:04:29.107Z,9.06
2022-11-25T21:08:31.415Z,8.79
2022-11-25T21:12:32.901Z,8.74
2022-11-25T21:16:34.397Z,9.00
2022-11-25T21:20:36.093Z,9.08
2022-11-25T21:24:41.059Z,9.03
2022-11-25T21:28:43.927Z,8.97
2022-11-25T21:32:45.844Z,9.04
2022-11-25T21:36:51.583Z,9.00
2022-11-25T21:40:54.317Z,8.73
2022-11-25T21:44:55.962Z,8.35
2022-11-25T21:48:57.417Z,8.45
2022-11-25T21:53:00.823Z,8.47
2022-11-25T21:57:02.453Z,8.61
2022-11-25T22:01:04.021Z,8.55
2022-11-25T22:05:14.481Z,8.64
2022-11-25T22:09:16.048Z,8.56
2022-11-25T22:13:22.208Z,8.39
2022-11-25T22:17:23.896Z,8.34
2022-11-25T22:21:25.398Z,8.48
2022-11-25T22:25:29.333Z,8.46
2022-11-25T22:29:35.483Z,8.30
2022-11-25T22:33:37.577Z,8.49
2022-11-25T22:37:39.235Z,8.66
2022-11-25T22:42:02.504Z,8.28
2022-11-25T22:46:04.704Z,8.83
2022-11-25T22:50:14.058Z,8.86
2022-11-25T22:54:15.475Z,8.79
2022-11-25T22:58:16.891Z,8.58
2022-11-25T23:02:32.497Z,8.77
2022-11-25T23:06:33.991Z,9.08
2022-11-25T23:10:35.479Z,9.07
2022-11-25T23:14:37.108Z,8.68
2022-11-25T23:18:42.682Z,8.72
2022-11-25T23:22:44.160Z,9.06
2022-11-25T23:26:45.635Z,9.04
2022-11-25T23:30:53.251Z,8.90
2022-11-25T23:34:54.738Z,8.87
2022-11-25T23:38:58.751Z,9.04
2022-11-25T23:43:00.533Z,8.72
2022-11-25T23:47:06.406Z,8.98
2022-11-25T23:51:09.336Z,9.08
2022-11-25T23:55:15.379Z,9.02
2022-11-25T23:59:17.227Z,8.88
